sensor_id;sensor_type;location;lat;lon;timestamp;temperature;humidity
79024;DHT22;70306;44.764;37.688;2024-02-26T01:07:30;4.36;70.07
79024;DHT22;70306;44.764;37.688;2024-02-26T01:08:37;4.35;70.08
79024;DHT22;70306;44.764;37.688;2024-02-26T01:09:38;4.36;70.20
79024;DHT22;70306;44.764;37.688;2024-02-26T01:10:40;4.38;70.02
79024;DHT22;70306;44.764;37.688;2024-02-26T01:11:42;4.38;70.03
79024;DHT22;70306;44.764;37.688;2024-02-26T01:12:44;4.38;69.97
79024;DHT22;70306;44.764;37.688;2024-02-26T01:14:05;4.38;69.92
79024;DHT22;70306;44.764;37.688;2024-02-26T01:15:08;4.38;69.68
79024;DHT22;70306;44.764;37.688;2024-02-26T01:16:09;4.38;69.60
79024;DHT22;70306;44.764;37.688;2024-02-26T01:17:32;4.41;69.29
79024;DHT22;70306;44.764;37.688;2024-02-26T01:18:34;4.38;69.17
79024;DHT22;70306;44.764;37.688;2024-02-26T01:19:35;4.41;68.93
79024;DHT22;70306;44.764;37.688;2024-02-26T01:20:37;4.39;69.22
79024;DHT22;70306;44.764;37.688;2024-02-26T01:21:39;4.41;69.28
79024;DHT22;70306;44.764;37.688;2024-02-26T01:22:42;4.41;69.06
79024;DHT22;70306;44.764;37.688;2024-02-26T01:23:44;4.38;69.19
79024;DHT22;70306;44.764;37.688;2024-02-26T01:24:46;4.35;69.11
79024;DHT22;70306;44.764;37.688;2024-02-26T01:25:48;4.36;68.71
79024;DHT22;70306;44.764;37.688;2024-02-26T01:26:50;4.34;69.00
79024;DHT22;70306;44.764;37.688;2024-02-26T01:27:52;4.38;69.17
79024;DHT22;70306;44.764;37.688;2024-02-26T01:28:54;4.36;68.69
79024;DHT22;70306;44.764;37.688;2024-02-26T01:29:56;4.35;68.73
79024;DHT22;70306;44.764;37.688;2024-02-26T01:30:58;4.36;69.21
79024;DHT22;70306;44.764;37.688;2024-02-26T01:32:01;4.39;68.77
79024;DHT22;70306;44.764;37.688;2024-02-26T01:33:03;4.39;68.72
79024;DHT22;70306;44.764;37.688;2024-02-26T01:34:04;4.42;68.64
79024;DHT22;70306;44.764;37.688;2024-02-26T01:35:06;4.41;68.18
79024;DHT22;70306;44.764;37.688;2024-02-26T01:36:11;4.41;68.55
79024;DHT22;70306;44.764;37.688;2024-02-26T01:37:13;4.38;68.25
79024;DHT22;70306;44.764;37.688;2024-02-26T01:38:35;4.34;68.12
79024;DHT22;70306;44.764;37.688;2024-02-26T01:39:37;4.32;68.10
79024;DHT22;70306;44.764;37.688;2024-02-26T01:40:39;4.32;68.43
79024;DHT22;70306;44.764;37.688;2024-02-26T01:41:41;4.31;68.60
79024;DHT22;70306;44.764;37.688;2024-02-26T01:42:43;4.34;69.08
79024;DHT22;70306;44.764;37.688;2024-02-26T01:43:45;4.32;69.02
79024;DHT22;70306;44.764;37.688;2024-02-26T01:44:47;4.34;68.87
79024;DHT22;70306;44.764;37.688;2024-02-26T01:45:49;4.35;68.89
79024;DHT22;70306;44.764;37.688;2024-02-26T01:46:51;4.36;68.44
79024;DHT22;70306;44.764;37.688;2024-02-26T01:47:55;4.36;68.71
79024;DHT22;70306;44.764;37.688;2024-02-26T01:49:17;4.36;68.19
79024;DHT22;70306;44.764;37.688;2024-02-26T01:50:19;4.36;68.47
79024;DHT22;70306;44.764;37.688;2024-02-26T01:51:24;4.35;68.12
79024;DHT22;70306;44.764;37.688;2024-02-26T01:52:26;4.39;68.19
79024;DHT22;70306;44.764;37.688;2024-02-26T01:53:28;4.41;68.05
79024;DHT22;70306;44.764;37.688;2024-02-26T01:54:30;4.39;68.37
79024;DHT22;70306;44.764;37.688;2024-02-26T01:55:33;4.41;67.61
79024;DHT22;70306;44.764;37.688;2024-02-26T01:56:36;4.42;67.54
79024;DHT22;70306;44.764;37.688;2024-02-26T01:57:39;4.38;67.98
79024;DHT22;70306;44.764;37.688;2024-02-26T01:58:41;4.43;67.83
79024;DHT22;70306;44.764;37.688;2024-02-26T01:59:43;4.39;67.83
79024;DHT22;70306;44.764;37.688;2024-02-26T02:00:45;4.39;67.64
79024;DHT22;70306;44.764;37.688;2024-02-26T02:01:49;4.39;68.13
79024;DHT22;70306;44.764;37.688;2024-02-26T02:02:54;4.35;68.29
79024;DHT22;70306;44.764;37.688;2024-02-26T02:03:59;4.35;67.88
79024;DHT22;70306;44.764;37.688;2024-02-26T02:05:01;4.38;67.99
79024;DHT22;70306;44.764;37.688;2024-02-26T02:06:03;4.36;67.97
79024;DHT22;70306;44.764;37.688;2024-02-26T02:07:05;4.39;67.90
79024;DHT22;70306;44.764;37.688;2024-02-26T03:07:04;4.19;67.39
79024;DHT22;70306;44.764;37.688;2024-02-26T03:08:06;4.21;67.22
79024;DHT22;70306;44.764;37.688;2024-02-26T03:09:08;4.21;68.13
79024;DHT22;70306;44.764;37.688;2024-02-26T03:10:10;4.25;67.83
79024;DHT22;70306;44.764;37.688;2024-02-26T03:11:15;4.24;68.23
79024;DHT22;70306;44.764;37.688;2024-02-26T03:12:17;4.25;67.91
79024;DHT22;70306;44.764;37.688;2024-02-26T03:13:19;4.25;67.56
79024;DHT22;70306;44.764;37.688;2024-02-26T03:14:21;4.25;67.59
79024;DHT22;70306;44.764;37.688;2024-02-26T03:15:22;4.25;67.16
79024;DHT22;70306;44.764;37.688;2024-02-26T03:16:24;4.25;67.17
79024;DHT22;70306;44.764;37.688;2024-02-26T03:17:26;4.22;67.43
79024;DHT22;70306;44.764;37.688;2024-02-26T03:18:28;4.24;66.95
79024;DHT22;70306;44.764;37.688;2024-02-26T03:19:30;4.22;67.21
79024;DHT22;70306;44.764;37.688;2024-02-26T03:20:31;4.24;67.08
79024;DHT22;70306;44.764;37.688;2024-02-26T03:21:33;4.22;67.38
79024;DHT22;70306;44.764;37.688;2024-02-26T03:22:35;4.22;67.66
79024;DHT22;70306;44.764;37.688;2024-02-26T03:23:37;4.19;66.75
79024;DHT22;70306;44.764;37.688;2024-02-26T03:26:28;4.18;66.78
79024;DHT22;70306;44.764;37.688;2024-02-26T03:27:29;4.15;67.01
79024;DHT22;70306;44.764;37.688;2024-02-26T03:28:31;4.12;66.72
79024;DHT22;70306;44.764;37.688;2024-02-26T03:29:37;4.12;66.93
79024;DHT22;70306;44.764;37.688;2024-02-26T03:30:39;4.17;67.24
79024;DHT22;70306;44.764;37.688;2024-02-26T03:31:40;4.18;67.13
79024;DHT22;70306;44.764;37.688;2024-02-26T03:32:42;4.18;66.65
79024;DHT22;70306;44.764;37.688;2024-02-26T03:33:44;4.19;66.83
79024;DHT22;70306;44.764;37.688;2024-02-26T03:34:45;4.19;66.81
79024;DHT22;70306;44.764;37.688;2024-02-26T03:35:47;4.19;66.62
79024;DHT22;70306;44.764;37.688;2024-02-26T03:36:49;4.21;67.02
79024;DHT22;70306;44.764;37.688;2024-02-26T03:37:51;4.19;66.50
79024;DHT22;70306;44.764;37.688;2024-02-26T03:38:53;4.21;67.27
79024;DHT22;70306;44.764;37.688;2024-02-26T03:39:54;4.21;66.80
79024;DHT22;70306;44.764;37.688;2024-02-26T03:40:58;4.22;67.29
79024;DHT22;70306;44.764;37.688;2024-02-26T03:42:00;4.22;66.78
79024;DHT22;70306;44.764;37.688;2024-02-26T03:43:02;4.22;66.52
79024;DHT22;70306;44.764;37.688;2024-02-26T03:55:41;4.05;66.90
79024;DHT22;70306;44.764;37.688;2024-02-26T03:56:43;4.07;67.16
79024;DHT22;70306;44.764;37.688;2024-02-26T03:57:45;4.07;67.54
79024;DHT22;70306;44.764;37.688;2024-02-26T03:58:50;4.07;66.63
79024;DHT22;70306;44.764;37.688;2024-02-26T03:59:52;4.07;66.71
79024;DHT22;70306;44.764;37.688;2024-02-26T04:36:21;4.04;68.25
79024;DHT22;70306;44.764;37.688;2024-02-26T04:37:23;4.04;68.58
79024;DHT22;70306;44.764;37.688;2024-02-26T04:40:17;4.11;68.42
79024;DHT22;70306;44.764;37.688;2024-02-26T04:41:19;4.17;68.88
79024;DHT22;70306;44.764;37.688;2024-02-26T04:42:22;4.24;69.48
79024;DHT22;70306;44.764;37.688;2024-02-26T04:49:12;4.38;67.51
79024;DHT22;70306;44.764;37.688;2024-02-26T04:54:03;4.50;66.28
79024;DHT22;70306;44.764;37.688;2024-02-26T04:55:09;4.54;66.60
79024;DHT22;70306;44.764;37.688;2024-02-26T04:56:32;4.61;66.37
79024;DHT22;70306;44.764;37.688;2024-02-26T04:59:26;4.76;65.80
79024;DHT22;70306;44.764;37.688;2024-02-26T05:12:07;5.35;64.29
79024;DHT22;70306;44.764;37.688;2024-02-26T05:13:09;5.43;64.19
79024;DHT22;70306;44.764;37.688;2024-02-26T05:14:13;5.50;64.21
79024;DHT22;70306;44.764;37.688;2024-02-26T05:21:01;6.11;60.40
79024;DHT22;70306;44.764;37.688;2024-02-26T05:22:23;6.28;59.30
79024;DHT22;70306;44.764;37.688;2024-02-26T05:23:26;6.37;59.51
79024;DHT22;70306;44.764;37.688;2024-02-26T05:24:28;6.43;58.59
79024;DHT22;70306;44.764;37.688;2024-02-26T05:29:00;7.00;56.23
79024;DHT22;70306;44.764;37.688;2024-02-26T05:30:02;7.09;57.33
79024;DHT22;70306;44.764;37.688;2024-02-26T05:31:14;7.20;56.32
79024;DHT22;70306;44.764;37.688;2024-02-26T05:45:59;8.06;54.23
79024;DHT22;70306;44.764;37.688;2024-02-26T05:48:53;8.16;54.65
79024;DHT22;70306;44.764;37.688;2024-02-26T05:50:32;8.13;54.99
79024;DHT22;70306;44.764;37.688;2024-02-26T05:53:25;8.20;54.59
79024;DHT22;70306;44.764;37.688;2024-02-26T05:56:28;8.38;53.53
79024;DHT22;70306;44.764;37.688;2024-02-26T05:59:19;8.59;53.62
79024;DHT22;70306;44.764;37.688;2024-02-26T06:00:31;8.69;52.49
79024;DHT22;70306;44.764;37.688;2024-02-26T06:01:33;8.77;52.71
79024;DHT22;70306;44.764;37.688;2024-02-26T06:06:24;9.14;52.06
79024;DHT22;70306;44.764;37.688;2024-02-26T06:13:00;9.58;49.39
79024;DHT22;70306;44.764;37.688;2024-02-26T06:21:45;10.07;48.63
79024;DHT22;70306;44.764;37.688;2024-02-26T06:22:47;10.17;47.70
79024;DHT22;70306;44.764;37.688;2024-02-26T06:23:49;10.28;47.46
79024;DHT22;70306;44.764;37.688;2024-02-26T06:28:41;10.55;46.24
79024;DHT22;70306;44.764;37.688;2024-02-26T06:29:43;10.62;46.80
79024;DHT22;70306;44.764;37.688;2024-02-26T06:30:45;10.68;45.48
79024;DHT22;70306;44.764;37.688;2024-02-26T06:31:48;10.72;45.72
79024;DHT22;70306;44.764;37.688;2024-02-26T06:33:17;10.80;46.05
79024;DHT22;70306;44.764;37.688;2024-02-26T06:34:19;10.80;44.91
79024;DHT22;70306;44.764;37.688;2024-02-26T06:37:14;10.94;44.95
79024;DHT22;70306;44.764;37.688;2024-02-26T06:42:07;11.04;43.71
79024;DHT22;70306;44.764;37.688;2024-02-26T06:54:54;11.35;44.24
79024;DHT22;70306;44.764;37.688;2024-02-26T06:56:16;11.43;44.20
79024;DHT22;70306;44.764;37.688;2024-02-26T06:57:41;11.49;44.69
79024;DHT22;70306;44.764;37.688;2024-02-26T07:08:16;11.93;41.90
79024;DHT22;70306;44.764;37.688;2024-02-26T07:09:42;11.95;41.37
79024;DHT22;70306;44.764;37.688;2024-02-26T07:10:45;11.95;41.65
79024;DHT22;70306;44.764;37.688;2024-02-26T07:11:50;12.02;41.98
79024;DHT22;70306;44.764;37.688;2024-02-26T07:14:44;12.14;41.77
79024;DHT22;70306;44.764;37.688;2024-02-26T07:21:33;12.50;38.15
79024;DHT22;70306;44.764;37.688;2024-02-26T07:22:55;12.50;39.64
79024;DHT22;70306;44.764;37.688;2024-02-26T07:24:29;12.50;39.63
79024;DHT22;70306;44.764;37.688;2024-02-26T07:25:31;12.52;39.19
79024;DHT22;70306;44.764;37.688;2024-02-26T07:26:33;12.57;39.19
79024;DHT22;70306;44.764;37.688;2024-02-26T07:27:36;12.57;38.07
79024;DHT22;70306;44.764;37.688;2024-02-26T07:28:40;12.67;37.26
79024;DHT22;70306;44.764;37.688;2024-02-26T07:29:42;12.76;37.04
79024;DHT22;70306;44.764;37.688;2024-02-26T07:30:44;12.77;38.85
79024;DHT22;70306;44.764;37.688;2024-02-26T07:31:46;12.79;38.94
79024;DHT22;70306;44.764;37.688;2024-02-26T07:32:48;12.77;38.37
79024;DHT22;70306;44.764;37.688;2024-02-26T07:33:51;12.86;37.54
79024;DHT22;70306;44.764;37.688;2024-02-26T07:34:53;12.81;38.61
79024;DHT22;70306;44.764;37.688;2024-02-26T07:35:55;12.87;36.55
79024;DHT22;70306;44.764;37.688;2024-02-26T07:36:58;12.94;36.41
79024;DHT22;70306;44.764;37.688;2024-02-26T07:38:00;12.98;35.99
79024;DHT22;70306;44.764;37.688;2024-02-26T07:39:22;13.04;37.27
79024;DHT22;70306;44.764;37.688;2024-02-26T07:40:24;13.05;37.13
79024;DHT22;70306;44.764;37.688;2024-02-26T07:41:28;13.08;37.09
79024;DHT22;70306;44.764;37.688;2024-02-26T07:42:30;13.10;35.78
79024;DHT22;70306;44.764;37.688;2024-02-26T07:43:32;13.12;36.24
79024;DHT22;70306;44.764;37.688;2024-02-26T07:44:35;13.18;35.87
79024;DHT22;70306;44.764;37.688;2024-02-26T07:45:37;13.22;37.30
79024;DHT22;70306;44.764;37.688;2024-02-26T07:46:39;13.25;37.44
79024;DHT22;70306;44.764;37.688;2024-02-26T07:49:55;13.31;36.30
79024;DHT22;70306;44.764;37.688;2024-02-26T07:51:01;13.32;36.74
79024;DHT22;70306;44.764;37.688;2024-02-26T07:55:46;13.40;35.39
79024;DHT22;70306;44.764;37.688;2024-02-26T07:59:00;13.43;36.29
79024;DHT22;70306;44.764;37.688;2024-02-26T08:00:03;13.40;36.04
79024;DHT22;70306;44.764;37.688;2024-02-26T08:10:44;13.50;33.94
79024;DHT22;70306;44.764;37.688;2024-02-26T08:13:38;13.60;33.84
79024;DHT22;70306;44.764;37.688;2024-02-26T08:14:40;13.60;34.60
79024;DHT22;70306;44.764;37.688;2024-02-26T08:19:12;13.67;33.06
79024;DHT22;70306;44.764;37.688;2024-02-26T08:21:59;13.71;33.57
79024;DHT22;70306;44.764;37.688;2024-02-26T08:23:02;13.74;33.79
79024;DHT22;70306;44.764;37.688;2024-02-26T08:24:05;13.71;33.23
79024;DHT22;70306;44.764;37.688;2024-02-26T08:25:07;13.73;33.17
79024;DHT22;70306;44.764;37.688;2024-02-26T08:29:59;13.77;33.55
79024;DHT22;70306;44.764;37.688;2024-02-26T08:31:11;13.80;32.50
79024;DHT22;70306;44.764;37.688;2024-02-26T08:32:13;13.80;32.73
79024;DHT22;70306;44.764;37.688;2024-02-26T08:33:18;13.84;32.95
79024;DHT22;70306;44.764;37.688;2024-02-26T08:34:20;13.85;32.39
79024;DHT22;70306;44.764;37.688;2024-02-26T08:38:53;13.95;32.48
79024;DHT22;70306;44.764;37.688;2024-02-26T08:39:55;14.00;32.14
79024;DHT22;70306;44.764;37.688;2024-02-26T08:46:40;14.17;31.95
79024;DHT22;70306;44.764;37.688;2024-02-26T08:48:01;14.18;32.04
79024;DHT22;70306;44.764;37.688;2024-02-26T08:49:04;14.22;31.87
79024;DHT22;70306;44.764;37.688;2024-02-26T08:50:11;14.24;31.97
79024;DHT22;70306;44.764;37.688;2024-02-26T08:51:13;14.28;32.00
79024;DHT22;70306;44.764;37.688;2024-02-26T08:52:15;14.36;32.21
79024;DHT22;70306;44.764;37.688;2024-02-26T08:53:18;14.43;32.36
79024;DHT22;70306;44.764;37.688;2024-02-26T08:54:20;14.53;31.34
79024;DHT22;70306;44.764;37.688;2024-02-26T08:55:23;14.52;31.10
79024;DHT22;70306;44.764;37.688;2024-02-26T08:56:46;14.59;30.91
79024;DHT22;70306;44.764;37.688;2024-02-26T09:03:59;14.83;31.42
79024;DHT22;70306;44.764;37.688;2024-02-26T09:05:02;14.87;30.90
79024;DHT22;70306;44.764;37.688;2024-02-26T09:06:04;14.89;31.34
79024;DHT22;70306;44.764;37.688;2024-02-26T09:07:08;14.94;32.34
79024;DHT22;70306;44.764;37.688;2024-02-26T09:08:10;14.97;30.68
79024;DHT22;70306;44.764;37.688;2024-02-26T09:11:05;14.94;30.30
79024;DHT22;70306;44.764;37.688;2024-02-26T09:14:06;15.02;31.01
79024;DHT22;70306;44.764;37.688;2024-02-26T09:17:00;15.11;31.08
79024;DHT22;70306;44.764;37.688;2024-02-26T09:19:54;15.08;29.76
79024;DHT22;70306;44.764;37.688;2024-02-26T09:20:56;15.11;30.46
79024;DHT22;70306;44.764;37.688;2024-02-26T09:21:58;15.11;30.89
79024;DHT22;70306;44.764;37.688;2024-02-26T09:23:20;15.14;31.25
79024;DHT22;70306;44.764;37.688;2024-02-26T09:24:24;15.16;30.13
79024;DHT22;70306;44.764;37.688;2024-02-26T09:25:26;15.25;30.74
79024;DHT22;70306;44.764;37.688;2024-02-26T09:26:49;15.31;29.88
79024;DHT22;70306;44.764;37.688;2024-02-26T09:28:11;15.31;29.62
79024;DHT22;70306;44.764;37.688;2024-02-26T09:29:13;15.33;29.01
79024;DHT22;70306;44.764;37.688;2024-02-26T09:30:15;15.35;29.80
79024;DHT22;70306;44.764;37.688;2024-02-26T09:31:23;15.32;30.45
79024;DHT22;70306;44.764;37.688;2024-02-26T09:34:17;15.29;29.68
79024;DHT22;70306;44.764;37.688;2024-02-26T09:35:19;15.31;30.07
79024;DHT22;70306;44.764;37.688;2024-02-26T09:48:02;15.47;30.31
79024;DHT22;70306;44.764;37.688;2024-02-26T09:49:07;15.51;30.36
79024;DHT22;70306;44.764;37.688;2024-02-26T09:52:04;15.60;27.72
79024;DHT22;70306;44.764;37.688;2024-02-26T09:53:08;15.56;29.32
79024;DHT22;70306;44.764;37.688;2024-02-26T09:54:13;15.63;29.77
79024;DHT22;70306;44.764;37.688;2024-02-26T09:55:16;15.70;29.50
79024;DHT22;70306;44.764;37.688;2024-02-26T09:58:13;15.66;28.95
79024;DHT22;70306;44.764;37.688;2024-02-26T09:59:20;15.64;29.00
79024;DHT22;70306;44.764;37.688;2024-02-26T10:00:37;15.63;28.57
79024;DHT22;70306;44.764;37.688;2024-02-26T10:01:42;15.64;28.35
79024;DHT22;70306;44.764;37.688;2024-02-26T10:02:46;15.63;28.27
79024;DHT22;70306;44.764;37.688;2024-02-26T10:03:55;15.61;27.93
79024;DHT22;70306;44.764;37.688;2024-02-26T10:09:05;16.01;28.97
79024;DHT22;70306;44.764;37.688;2024-02-26T10:10:11;16.02;28.93
79024;DHT22;70306;44.764;37.688;2024-02-26T10:11:15;16.08;27.96
79024;DHT22;70306;44.764;37.688;2024-02-26T10:12:17;16.06;28.50
79024;DHT22;70306;44.764;37.688;2024-02-26T10:17:15;16.05;28.73
79024;DHT22;70306;44.764;37.688;2024-02-26T10:18:17;16.02;29.77
79024;DHT22;70306;44.764;37.688;2024-02-26T10:21:31;16.06;30.16
79024;DHT22;70306;44.764;37.688;2024-02-26T10:24:20;16.02;29.65
79024;DHT22;70306;44.764;37.688;2024-02-26T10:25:23;15.95;29.91
79024;DHT22;70306;44.764;37.688;2024-02-26T10:28:36;16.02;30.88
79024;DHT22;70306;44.764;37.688;2024-02-26T10:29:38;16.04;26.75
79024;DHT22;70306;44.764;37.688;2024-02-26T10:32:38;15.88;29.38
79024;DHT22;70306;44.764;37.688;2024-02-26T10:37:29;15.92;31.41
79024;DHT22;70306;44.764;37.688;2024-02-26T10:38:51;15.88;31.58
79024;DHT22;70306;44.764;37.688;2024-02-26T10:41:05;15.81;32.54
79024;DHT22;70306;44.764;37.688;2024-02-26T10:42:12;15.85;32.05
79024;DHT22;70306;44.764;37.688;2024-02-26T10:50:39;16.05;29.64
79024;DHT22;70306;44.764;37.688;2024-02-26T10:51:44;16.12;28.86
79024;DHT22;70306;44.764;37.688;2024-02-26T10:52:47;16.22;28.45
79024;DHT22;70306;44.764;37.688;2024-02-26T10:53:51;16.33;30.83
79024;DHT22;70306;44.764;37.688;2024-02-26T10:56:50;16.18;30.99
79024;DHT22;70306;44.764;37.688;2024-02-26T10:58:18;16.16;31.34
79024;DHT22;70306;44.764;37.688;2024-02-26T10:59:42;16.22;29.72
79024;DHT22;70306;44.764;37.688;2024-02-26T11:00:46;16.30;28.97
79024;DHT22;70306;44.764;37.688;2024-02-26T11:01:58;16.43;28.47
79024;DHT22;70306;44.764;37.688;2024-02-26T11:05:31;16.40;26.90
79024;DHT22;70306;44.764;37.688;2024-02-26T11:08:21;16.37;28.31
79024;DHT22;70306;44.764;37.688;2024-02-26T11:09:33;16.40;28.43
79024;DHT22;70306;44.764;37.688;2024-02-26T11:10:38;16.40;28.13
79024;DHT22;70306;44.764;37.688;2024-02-26T11:13:41;16.53;27.97
79024;DHT22;70306;44.764;37.688;2024-02-26T11:14:47;16.54;26.72
79024;DHT22;70306;44.764;37.688;2024-02-26T11:15:50;16.53;27.37
79024;DHT22;70306;44.764;37.688;2024-02-26T11:18:50;16.36;29.85
79024;DHT22;70306;44.764;37.688;2024-02-26T11:19:56;16.43;28.46
79024;DHT22;70306;44.764;37.688;2024-02-26T11:20:59;16.39;27.32
79024;DHT22;70306;44.764;37.688;2024-02-26T11:22:02;16.42;29.00
79024;DHT22;70306;44.764;37.688;2024-02-26T11:23:48;16.57;30.23
79024;DHT22;70306;44.764;37.688;2024-02-26T11:24:50;16.61;31.41
79024;DHT22;70306;44.764;37.688;2024-02-26T11:25:56;16.61;29.40
79024;DHT22;70306;44.764;37.688;2024-02-26T11:27:03;16.65;28.81
79024;DHT22;70306;44.764;37.688;2024-02-26T11:28:12;16.54;30.44
79024;DHT22;70306;44.764;37.688;2024-02-26T11:31:16;16.34;30.31
79024;DHT22;70306;44.764;37.688;2024-02-26T11:40:01;15.76;33.75
79024;DHT22;70306;44.764;37.688;2024-02-26T11:43:15;15.64;34.25
79024;DHT22;70306;44.764;37.688;2024-02-26T11:48:34;15.43;33.94
79024;DHT22;70306;44.764;37.688;2024-02-26T11:54:47;15.33;35.44
79024;DHT22;70306;44.764;37.688;2024-02-26T12:02:02;15.09;36.44
79024;DHT22;70306;44.764;37.688;2024-02-26T12:03:04;15.14;36.63
79024;DHT22;70306;44.764;37.688;2024-02-26T12:22:52;14.95;37.29
79024;DHT22;70306;44.764;37.688;2024-02-26T12:35:29;14.74;38.16
79024;DHT22;70306;44.764;37.688;2024-02-26T12:38:32;14.64;39.25
79024;DHT22;70306;44.764;37.688;2024-02-26T12:40:59;14.63;38.23
79024;DHT22;70306;44.764;37.688;2024-02-26T12:47:25;14.67;38.41
79024;DHT22;70306;44.764;37.688;2024-02-26T12:50:19;14.64;39.30
79024;DHT22;70306;44.764;37.688;2024-02-26T12:51:21;14.74;39.84
79024;DHT22;70306;44.764;37.688;2024-02-26T12:52:23;14.77;38.57
79024;DHT22;70306;44.764;37.688;2024-02-26T12:53:50;14.80;38.21
79024;DHT22;70306;44.764;37.688;2024-02-26T12:55:28;14.70;38.14
79024;DHT22;70306;44.764;37.688;2024-02-26T12:56:30;14.70;38.68
79024;DHT22;70306;44.764;37.688;2024-02-26T12:57:33;14.74;39.00
79024;DHT22;70306;44.764;37.688;2024-02-26T12:58:38;14.70;39.28
79024;DHT22;70306;44.764;37.688;2024-02-26T13:01:44;14.36;40.14
79024;DHT22;70306;44.764;37.688;2024-02-26T13:03:16;14.39;39.17
79024;DHT22;70306;44.764;37.688;2024-02-26T13:09:45;14.19;40.07
79024;DHT22;70306;44.764;37.688;2024-02-26T13:12:50;14.15;40.91
79024;DHT22;70306;44.764;37.688;2024-02-26T13:14:20;14.30;39.33
79024;DHT22;70306;44.764;37.688;2024-02-26T13:15:23;14.39;39.82
79024;DHT22;70306;44.764;37.688;2024-02-26T13:16:27;14.53;38.88
79024;DHT22;70306;44.764;37.688;2024-02-26T13:17:33;14.50;39.33
79024;DHT22;70306;44.764;37.688;2024-02-26T13:19:54;14.53;40.11
79024;DHT22;70306;44.764;37.688;2024-02-26T13:22:45;14.63;38.17
79024;DHT22;70306;44.764;37.688;2024-02-26T13:23:52;14.56;37.78
79024;DHT22;70306;44.764;37.688;2024-02-26T13:24:57;14.52;38.09
79024;DHT22;70306;44.764;37.688;2024-02-26T13:26:00;14.57;38.59
79024;DHT22;70306;44.764;37.688;2024-02-26T13:27:03;14.57;39.11
79024;DHT22;70306;44.764;37.688;2024-02-26T13:31:55;14.43;40.18
79024;DHT22;70306;44.764;37.688;2024-02-26T13:36:11;14.15;40.16
79024;DHT22;70306;44.764;37.688;2024-02-26T13:37:41;14.18;39.80
79024;DHT22;70306;44.764;37.688;2024-02-26T13:39:25;14.12;39.82
79024;DHT22;70306;44.764;37.688;2024-02-26T13:42:19;14.09;39.52
79024;DHT22;70306;44.764;37.688;2024-02-26T13:52:05;13.48;41.77
79024;DHT22;70306;44.764;37.688;2024-02-26T13:53:07;13.43;41.30
79024;DHT22;70306;44.764;37.688;2024-02-26T13:54:09;13.38;42.08
79024;DHT22;70306;44.764;37.688;2024-02-26T13:55:32;13.28;41.26
79024;DHT22;70306;44.764;37.688;2024-02-26T13:56:36;13.21;41.83
79024;DHT22;70306;44.764;37.688;2024-02-26T13:58:33;13.21;41.46
79024;DHT22;70306;44.764;37.688;2024-02-26T13:59:35;13.18;41.88
79024;DHT22;70306;44.764;37.688;2024-02-26T14:00:37;13.12;42.46
79024;DHT22;70306;44.764;37.688;2024-02-26T14:01:40;13.11;42.34
79024;DHT22;70306;44.764;37.688;2024-02-26T14:03:06;13.04;42.48
79024;DHT22;70306;44.764;37.688;2024-02-26T14:04:09;13.00;42.29
79024;DHT22;70306;44.764;37.688;2024-02-26T14:05:12;13.03;42.74
79024;DHT22;70306;44.764;37.688;2024-02-26T14:06:14;13.00;42.31
79024;DHT22;70306;44.764;37.688;2024-02-26T14:07:16;13.01;42.28
79024;DHT22;70306;44.764;37.688;2024-02-26T14:08:38;12.94;42.72
79024;DHT22;70306;44.764;37.688;2024-02-26T14:09:40;12.88;43.05
79024;DHT22;70306;44.764;37.688;2024-02-26T14:10:42;12.87;43.18
79024;DHT22;70306;44.764;37.688;2024-02-26T14:11:48;12.87;43.20
79024;DHT22;70306;44.764;37.688;2024-02-26T14:12:50;12.84;42.35
79024;DHT22;70306;44.764;37.688;2024-02-26T14:13:52;12.80;42.64
79024;DHT22;70306;44.764;37.688;2024-02-26T14:14:54;12.76;43.36
79024;DHT22;70306;44.764;37.688;2024-02-26T14:15:57;12.77;43.56
79024;DHT22;70306;44.764;37.688;2024-02-26T14:16:59;12.73;43.41
79024;DHT22;70306;44.764;37.688;2024-02-26T14:19:24;12.64;44.12
79024;DHT22;70306;44.764;37.688;2024-02-26T14:20:26;12.59;43.65
79024;DHT22;70306;44.764;37.688;2024-02-26T14:21:29;12.52;44.14
79024;DHT22;70306;44.764;37.688;2024-02-26T14:22:34;12.45;44.33
79024;DHT22;70306;44.764;37.688;2024-02-26T14:23:36;12.42;44.40
79024;DHT22;70306;44.764;37.688;2024-02-26T14:24:38;12.39;45.05
79024;DHT22;70306;44.764;37.688;2024-02-26T14:25:41;12.38;45.58
79024;DHT22;70306;44.764;37.688;2024-02-26T14:26:43;12.39;45.66
79024;DHT22;70306;44.764;37.688;2024-02-26T14:27:47;12.35;44.84
79024;DHT22;70306;44.764;37.688;2024-02-26T14:28:49;12.38;44.50
79024;DHT22;70306;44.764;37.688;2024-02-26T14:29:51;12.32;44.61
79024;DHT22;70306;44.764;37.688;2024-02-26T14:30:53;12.31;44.89
79024;DHT22;70306;44.764;37.688;2024-02-26T14:31:55;12.36;45.30
79024;DHT22;70306;44.764;37.688;2024-02-26T14:32:58;12.43;45.12
79024;DHT22;70306;44.764;37.688;2024-02-26T14:34:00;12.39;45.01
79024;DHT22;70306;44.764;37.688;2024-02-26T14:35:03;12.35;45.46
79024;DHT22;70306;44.764;37.688;2024-02-26T14:36:06;12.24;45.42
79024;DHT22;70306;44.764;37.688;2024-02-26T14:37:08;12.24;45.94
79024;DHT22;70306;44.764;37.688;2024-02-26T14:38:12;12.13;45.80
79024;DHT22;70306;44.764;37.688;2024-02-26T14:39:14;12.07;46.45
79024;DHT22;70306;44.764;37.688;2024-02-26T14:40:16;12.04;46.51
79024;DHT22;70306;44.764;37.688;2024-02-26T14:41:18;11.95;46.60
79024;DHT22;70306;44.764;37.688;2024-02-26T14:42:20;11.91;46.97
79024;DHT22;70306;44.764;37.688;2024-02-26T14:43:22;11.90;46.78
79024;DHT22;70306;44.764;37.688;2024-02-26T14:44:24;11.90;46.71
79024;DHT22;70306;44.764;37.688;2024-02-26T14:45:26;11.80;46.46
79024;DHT22;70306;44.764;37.688;2024-02-26T14:46:29;11.76;46.89
79024;DHT22;70306;44.764;37.688;2024-02-26T14:47:31;11.72;46.91
79024;DHT22;70306;44.764;37.688;2024-02-26T14:48:33;11.65;47.20
79024;DHT22;70306;44.764;37.688;2024-02-26T14:49:35;11.62;46.93
79024;DHT22;70306;44.764;37.688;2024-02-26T14:50:37;11.56;46.95
79024;DHT22;70306;44.764;37.688;2024-02-26T14:51:39;11.62;47.04
79024;DHT22;70306;44.764;37.688;2024-02-26T14:52:43;11.56;47.02
79024;DHT22;70306;44.764;37.688;2024-02-26T14:53:45;11.52;47.08
79024;DHT22;70306;44.764;37.688;2024-02-26T14:55:08;11.54;47.41
79024;DHT22;70306;44.764;37.688;2024-02-26T14:56:10;11.52;47.84
79024;DHT22;70306;44.764;37.688;2024-02-26T14:57:12;11.54;48.00
79024;DHT22;70306;44.764;37.688;2024-02-26T14:58:14;11.49;47.70
79024;DHT22;70306;44.764;37.688;2024-02-26T14:59:16;11.48;47.86
79024;DHT22;70306;44.764;37.688;2024-02-26T15:00:18;11.49;47.79